Dorado Leader — 3EIF6 — position and weather

sailwx.info

Track history (hours):
 
Tides and Currents Weather Stations Pressure Air Temp Water Temp Dewpoint Dewpoint Depression Visibility Wind Speed Wind Dir Waves Ship Positions

Dorado Leader

Last reported at 2018-May-21 10:01 UTC. Time now 2018-Jun-23 17:49 UTC.
Position N 34°47' E 139°53'.
Warning: this ship's position is 33 days out of date.

Length 199.9 m; beam 32.2 m.

Type: Cargo ship. MMSI: 372140000.

Date/timePositionNaut miles runAvg speedWind from/ knotsBaromVisibWave heightAir tempDewpointWater temp
2018-May-21 10:01N 34°47' E 139°53'019.9
2018-May-21 10:00N 34°47' E 139°52'917.1
2018-May-21 09:30N 34°52' E 139°44'815.5
2018-May-21 09:00N 34°59' E 139°41'816.8
2018-May-21 08:30N 35°07' E 139°44'713.1
2018-May-21 08:00N 35°13' E 139°46'612.1
2018-May-21 07:30N 35°19' E 139°43'714.0
2018-May-21 07:00N 35°26' E 139°43'3 5.9
2018-May-21 06:30N 35°28' E 139°41'0 0.0
2018-May-21 05:59N 35°28' E 139°41'0 0.0
2018-May-21 05:29N 35°28' E 139°41'0 0.0
2018-May-21 04:59N 35°28' E 139°41'0 0.0
2018-May-21 04:29N 35°28' E 139°41'0 0.0
2018-May-21 03:59N 35°28' E 139°41'0 0.0
2018-May-21 03:29N 35°28' E 139°41'0 0.0
2018-May-21 02:59N 35°28' E 139°41'0 0.0
2018-May-21 02:29N 35°28' E 139°41'0 0.0
2018-May-21 01:59N 35°28' E 139°41'0 0.0
2018-May-21 01:29N 35°28' E 139°41'0 0.0
2018-May-21 00:59N 35°28' E 139°41'0 0.0
2018-May-21 00:29N 35°28' E 139°41'0 0.0
2018-May-20 23:59N 35°28' E 139°41'0 0.0
2018-May-20 23:29N 35°28' E 139°41'0 0.0
2018-May-20 22:59N 35°28' E 139°41'0 0.0
2018-May-20 22:29N 35°28' E 139°41'0 0.7
2018-May-20 22:00N 35°28' E 139°41'2 3.4
2018-May-20 21:30N 35°27' E 139°43'4 8.9
2018-May-20 21:01N 35°24' E 139°46'612.1
2018-May-20 20:31N 35°18' E 139°45'612.4
2018-May-20 20:00N 35°11' E 139°47'4 7.1
2018-May-20 19:30N 35°08' E 139°46'4 7.5
2018-May-20 19:00N 35°04' E 139°45'510.2
2018-May-20 18:30N 34°60' E 139°42'611.5
2018-May-20 17:59N 34°54' E 139°40'917.9
2018-May-20 17:30N 34°46' E 139°37'  
2018-May-14 16:17N 32°28' E 133°22'175 3.4
2018-May-12 12:23N 33°42' E 136°31'3013.2
2018-May-12 10:08N 34°05' E 136°54'1212.7
2018-May-12 09:09N 34°16' E 137°01'614.0
2018-May-12 08:42N 34°22' E 137°03'314.3
2018-May-12 08:28N 34°25' E 137°02'613.4
2018-May-12 08:00N 34°32' E 137°02'5 9.9
2018-May-12 07:30N 34°35' E 136°58'510.6
2018-May-12 07:01N 34°40' E 137°02'815.1
2018-May-12 06:30N 34°43' E 137°10'713.3
2018-May-12 06:00N 34°44' E 137°18'1 1.2
2018-May-12 05:20N 34°44' E 137°19'0 0.0
2018-May-12 04:56N 34°44' E 137°19'0 0.1
2018-May-12 04:26N 34°44' E 137°19'0 0.1
2018-May-12 03:56N 34°44' E 137°19'0 0.0
2018-May-12 03:26N 34°44' E 137°19'0 0.0
2018-May-12 02:56N 34°44' E 137°19'0 0.0
2018-May-12 01:44N 34°44' E 137°19'0 0.0
2018-May-12 00:02N 34°44' E 137°19'0 0.0
2018-May-11 23:56N 34°44' E 137°19'0 0.0
2018-May-11 22:56N 34°44' E 137°19'0 0.1
2018-May-11 22:14N 34°44' E 137°19'0 0.0
2018-May-11 21:56N 34°44' E 137°19'0 0.6
2018-May-11 21:25N 34°44' E 137°18'4 8.3
2018-May-11 20:56N 34°44' E 137°14'715.3
2018-May-11 20:30N 34°41' E 137°06'816.2
2018-May-11 20:01N 34°37' E 136°58'611.6
2018-May-11 19:30N 34°32' E 137°03'7 9.9
2018-May-11 18:49N 34°25' E 137°03'5 7.5
2018-May-11 18:07N 34°20' E 137°03'1 7.4
2018-May-11 17:59N 34°19' E 137°03'9 8.8
2018-May-11 16:54N 34°10' E 136°59'510.5
2018-May-11 16:28N 34°06' E 136°56'511.5
2018-May-11 16:00N 34°02' E 136°52'610.9
2018-May-11 15:25N 33°57' E 136°48'1410.1
2018-May-11 14:00N 33°45' E 136°38'8 9.9
2018-May-11 13:14N 33°39' E 136°32'  
Track history (hours):
 
Tides and Currents Weather Stations Pressure Air Temp Water Temp Dewpoint Dewpoint Depression Visibility Wind Speed Wind Dir Waves Ship Positions

Dorado Leader

Last reported at 2018-May-21 10:01 UTC. Time now 2018-Jun-23 17:49 UTC.
Position N 34°47' E 139°53'.
Warning: this ship's position is 33 days out of date.

Length 199.9 m; beam 32.2 m.

Type: Cargo ship. MMSI: 372140000.

Date/timePositionNaut miles runAvg speedWind from/ knotsBaromVisibWave heightAir tempDewpointWater temp
2018-May-21 10:01N 34°47' E 139°53'019.9
2018-May-21 10:00N 34°47' E 139°52'917.1
2018-May-21 09:30N 34°52' E 139°44'815.5
2018-May-21 09:00N 34°59' E 139°41'816.8
2018-May-21 08:30N 35°07' E 139°44'713.1
2018-May-21 08:00N 35°13' E 139°46'612.1
2018-May-21 07:30N 35°19' E 139°43'714.0
2018-May-21 07:00N 35°26' E 139°43'3 5.9
2018-May-21 06:30N 35°28' E 139°41'0 0.0
2018-May-21 05:59N 35°28' E 139°41'0 0.0
2018-May-21 05:29N 35°28' E 139°41'0 0.0
2018-May-21 04:59N 35°28' E 139°41'0 0.0
2018-May-21 04:29N 35°28' E 139°41'0 0.0
2018-May-21 03:59N 35°28' E 139°41'0 0.0
2018-May-21 03:29N 35°28' E 139°41'0 0.0
2018-May-21 02:59N 35°28' E 139°41'0 0.0
2018-May-21 02:29N 35°28' E 139°41'0 0.0
2018-May-21 01:59N 35°28' E 139°41'0 0.0
2018-May-21 01:29N 35°28' E 139°41'0 0.0
2018-May-21 00:59N 35°28' E 139°41'0 0.0
2018-May-21 00:29N 35°28' E 139°41'0 0.0
2018-May-20 23:59N 35°28' E 139°41'0 0.0
2018-May-20 23:29N 35°28' E 139°41'0 0.0
2018-May-20 22:59N 35°28' E 139°41'0 0.0
2018-May-20 22:29N 35°28' E 139°41'0 0.7
2018-May-20 22:00N 35°28' E 139°41'2 3.4
2018-May-20 21:30N 35°27' E 139°43'4 8.9
2018-May-20 21:01N 35°24' E 139°46'612.1
2018-May-20 20:31N 35°18' E 139°45'612.4
2018-May-20 20:00N 35°11' E 139°47'4 7.1
2018-May-20 19:30N 35°08' E 139°46'4 7.5
2018-May-20 19:00N 35°04' E 139°45'510.2
2018-May-20 18:30N 34°60' E 139°42'611.5
2018-May-20 17:59N 34°54' E 139°40'917.9
2018-May-20 17:30N 34°46' E 139°37'  
2018-May-14 16:17N 32°28' E 133°22'175 3.4
2018-May-12 12:23N 33°42' E 136°31'3013.2
2018-May-12 10:08N 34°05' E 136°54'1212.7
2018-May-12 09:09N 34°16' E 137°01'614.0
2018-May-12 08:42N 34°22' E 137°03'314.3
2018-May-12 08:28N 34°25' E 137°02'613.4
2018-May-12 08:00N 34°32' E 137°02'5 9.9
2018-May-12 07:30N 34°35' E 136°58'510.6
2018-May-12 07:01N 34°40' E 137°02'815.1
2018-May-12 06:30N 34°43' E 137°10'713.3
2018-May-12 06:00N 34°44' E 137°18'1 1.2
2018-May-12 05:20N 34°44' E 137°19'0 0.0
2018-May-12 04:56N 34°44' E 137°19'0 0.1
2018-May-12 04:26N 34°44' E 137°19'0 0.1
2018-May-12 03:56N 34°44' E 137°19'0 0.0
2018-May-12 03:26N 34°44' E 137°19'0 0.0
2018-May-12 02:56N 34°44' E 137°19'0 0.0
2018-May-12 01:44N 34°44' E 137°19'0 0.0
2018-May-12 00:02N 34°44' E 137°19'0 0.0
2018-May-11 23:56N 34°44' E 137°19'0 0.0
2018-May-11 22:56N 34°44' E 137°19'0 0.1
2018-May-11 22:14N 34°44' E 137°19'0 0.0
2018-May-11 21:56N 34°44' E 137°19'0 0.6
2018-May-11 21:25N 34°44' E 137°18'4 8.3
2018-May-11 20:56N 34°44' E 137°14'715.3
2018-May-11 20:30N 34°41' E 137°06'816.2
2018-May-11 20:01N 34°37' E 136°58'611.6
2018-May-11 19:30N 34°32' E 137°03'7 9.9
2018-May-11 18:49N 34°25' E 137°03'5 7.5
2018-May-11 18:07N 34°20' E 137°03'1 7.4
2018-May-11 17:59N 34°19' E 137°03'9 8.8
2018-May-11 16:54N 34°10' E 136°59'510.5
2018-May-11 16:28N 34°06' E 136°56'511.5
2018-May-11 16:00N 34°02' E 136°52'610.9
2018-May-11 15:25N 33°57' E 136°48'1410.1
2018-May-11 14:00N 33°45' E 136°38'8 9.9
2018-May-11 13:14N 33°39' E 136°32'  

Dump ship's entire track history